Time;durP1;ratioP1;P1;durP2;ratioP2;P2;SDS_P1;SDS_P2;PMS_P1;PMS_P2;Temp;Humidity;BMP_temperature;BMP_pressure;BME280_temperature;BME280_humidity;BME280_pressure;Samples;Min_cycle;Max_cycle;Signal;HPM_P1;HPM_P2
2022/01/13 00:02:24;;;;;;;25.10;17.98;;;-0.80;99.90;;;;;;5022264;28;20274;-84
2022/01/13 00:04:51;;;;;;;30.88;20.88;;;-0.80;99.90;;;;;;5023593;28;20225;-84
2022/01/13 00:07:17;;;;;;;30.30;20.20;;;-0.70;99.90;;;;;;5023597;28;20211;-85
2022/01/13 00:09:45;;;;;;;25.95;19.58;;;-0.80;99.90;;;;;;5022401;28;20195;-85
2022/01/13 00:12:13;;;;;;;30.98;21.92;;;-0.70;99.90;;;;;;5022988;28;20209;-85
2022/01/13 00:14:55;;;;;;;24.85;19.50;;;-0.60;99.90;;;;;;5022597;28;20246;-85
2022/01/13 00:17:31;;;;;;;23.52;18.38;;;-0.60;99.90;;;;;;5022908;28;20207;-85
2022/01/13 00:20:27;;;;;;;24.08;19.65;;;-0.60;99.90;;;;;;5022942;28;20199;-85
2022/01/13 00:25:37;;;;;;;25.20;18.85;;;-0.50;99.90;;;;;;5020953;28;20219;-83
2022/01/13 00:28:12;;;;;;;23.25;18.52;;;-0.40;99.90;;;;;;5023012;28;20231;-85
2022/01/13 00:30:39;;;;;;;24.58;18.25;;;-0.30;99.90;;;;;;5023193;28;20277;-85
2022/01/13 00:33:07;;;;;;;24.88;18.42;;;-0.40;99.90;;;;;;5024145;28;20210;-84
2022/01/13 00:35:34;;;;;;;23.23;19.17;;;-0.30;99.90;;;;;;5027206;28;20255;-81
2022/01/13 00:38:01;;;;;;;22.35;15.90;;;-0.30;99.90;;;;;;5034534;28;20207;-84
2022/01/13 00:40:28;;;;;;;27.02;20.48;;;-0.60;99.90;;;;;;5026926;28;20242;-86
2022/01/13 00:42:56;;;;;;;26.40;17.23;;;-0.60;99.90;;;;;;5023204;28;20226;-86
2022/01/13 00:45:22;;;;;;;24.63;16.35;;;-0.50;99.90;;;;;;5021962;28;20716;-86
2022/01/13 00:47:49;;;;;;;21.73;15.68;;;-0.40;99.90;;;;;;5021628;28;20199;-84
2022/01/13 00:50:18;;;;;;;31.30;20.17;;;-0.30;99.90;;;;;;5022407;28;20207;-86
2022/01/13 00:52:44;;;;;;;24.67;17.02;;;-0.30;99.90;;;;;;5021530;28;20664;-85
2022/01/13 00:55:17;;;;;;;21.73;17.00;;;-0.30;99.90;;;;;;5021954;28;20227;-86
2022/01/13 00:57:44;;;;;;;21.17;17.55;;;-0.20;99.90;;;;;;5020884;28;20199;-85
2022/01/13 01:00:13;;;;;;;21.27;17.52;;;-0.10;99.90;;;;;;5022171;28;20672;-81
2022/01/13 01:02:40;;;;;;;24.55;19.00;;;-0.10;99.90;;;;;;5021959;28;20230;-83
2022/01/13 01:05:07;;;;;;;20.40;17.52;;;0.00;99.90;;;;;;5020981;28;20719;-84
2022/01/13 01:07:35;;;;;;;24.17;18.70;;;-0.30;99.90;;;;;;5021897;28;20203;-84
2022/01/13 01:10:03;;;;;;;28.50;19.92;;;-0.50;99.90;;;;;;5021520;28;20203;-86
2022/01/13 01:12:32;;;;;;;22.27;18.73;;;-0.40;99.90;;;;;;5022185;28;20245;-86
2022/01/13 01:14:59;;;;;;;28.05;19.52;;;-0.30;99.90;;;;;;5034267;23;20303;-83
2022/01/13 01:17:27;;;;;;;24.13;18.20;;;-0.20;99.90;;;;;;5019193;28;20230;-84
2022/01/13 01:19:54;;;;;;;25.73;19.08;;;-0.20;99.90;;;;;;5019222;28;20257;-83
2022/01/13 01:22:55;;;;;;;26.05;20.27;;;-0.20;99.90;;;;;;5018817;28;20219;-83
2022/01/13 01:25:43;;;;;;;30.40;19.50;;;-0.10;99.90;;;;;;5019106;28;20226;-84
2022/01/13 01:28:16;;;;;;;31.92;19.23;;;0.00;99.90;;;;;;5012523;28;20237;-83
2022/01/13 01:30:46;;;;;;;24.55;19.25;;;0.10;99.90;;;;;;5018921;28;20227;-83
2022/01/13 01:33:17;;;;;;;25.52;18.17;;;0.20;99.90;;;;;;5000063;28;20279;-83
2022/01/13 01:35:44;;;;;;;25.10;18.65;;;0.30;99.90;;;;;;5000124;28;20500;-84
2022/01/13 01:38:11;;;;;;;21.80;18.58;;;0.40;99.90;;;;;;5017193;28;20200;-83
2022/01/13 01:40:38;;;;;;;26.98;20.95;;;0.40;99.90;;;;;;5019763;28;20208;-83
2022/01/13 01:43:04;;;;;;;31.40;21.42;;;0.50;99.90;;;;;;5018932;28;20728;-84
2022/01/13 01:45:40;;;;;;;24.83;18.30;;;0.50;99.90;;;;;;5018835;28;20227;-83
2022/01/13 01:48:07;;;;;;;23.42;18.50;;;0.40;99.90;;;;;;5023052;28;20234;-84
2022/01/13 01:50:37;;;;;;;20.63;18.02;;;0.40;99.90;;;;;;5045560;28;20214;-83
2022/01/13 01:53:05;;;;;;;23.55;19.50;;;0.40;99.90;;;;;;5045978;28;20221;-83
2022/01/13 01:55:32;;;;;;;20.85;17.00;;;0.40;99.90;;;;;;5046739;28;20222;-84
2022/01/13 01:57:59;;;;;;;26.88;18.80;;;0.50;99.90;;;;;;5044941;28;20209;-83
2022/01/13 02:00:27;;;;;;;28.10;19.27;;;0.50;99.90;;;;;;5045550;28;20658;-83
2022/01/13 02:02:56;;;;;;;26.42;20.17;;;0.60;99.90;;;;;;5044297;28;20747;-83
2022/01/13 02:05:23;;;;;;;30.08;21.10;;;0.60;99.90;;;;;;5038710;28;20757;-83
2022/01/13 02:07:51;;;;;;;26.15;19.85;;;0.60;99.90;;;;;;5038314;28;20213;-83
2022/01/13 02:10:18;;;;;;;24.88;20.30;;;0.60;99.90;;;;;;5038379;28;20202;-81
2022/01/13 02:12:50;;;;;;;29.58;20.90;;;0.60;99.90;;;;;;5038274;28;20247;-83
2022/01/13 02:15:30;;;;;;;24.23;18.98;;;0.60;99.90;;;;;;5038198;28;20235;-83
2022/01/13 02:17:58;;;;;;;22.45;19.27;;;0.60;99.90;;;;;;5019107;28;20555;-83
2022/01/13 02:20:41;;;;;;;26.27;21.10;;;0.60;99.90;;;;;;5017964;28;20216;-83
2022/01/13 02:23:08;;;;;;;27.50;21.08;;;0.60;99.90;;;;;;5031789;28;20328;-83
2022/01/13 02:25:35;;;;;;;27.85;20.25;;;0.60;99.90;;;;;;5038171;28;20654;-83
2022/01/13 02:28:01;;;;;;;27.58;19.00;;;0.60;99.90;;;;;;5038308;28;20233;-83
2022/01/13 02:30:28;;;;;;;27.85;20.25;;;0.50;99.90;;;;;;5037626;28;20208;-83
2022/01/13 02:32:55;;;;;;;25.92;20.55;;;0.50;99.90;;;;;;5037989;28;20202;-83
2022/01/13 02:35:22;;;;;;;24.90;17.98;;;0.50;99.90;;;;;;5037538;28;20719;-83
2022/01/13 02:37:50;;;;;;;27.27;21.27;;;0.40;99.90;;;;;;5038504;28;20214;-83
2022/01/13 02:40:16;;;;;;;23.50;17.98;;;0.40;99.90;;;;;;5037977;28;20252;-83
2022/01/13 02:42:43;;;;;;;20.90;18.02;;;0.40;99.90;;;;;;5037766;28;20232;-83
2022/01/13 02:45:18;;;;;;;29.25;18.92;;;0.40;99.90;;;;;;5037956;28;20218;-84
2022/01/13 02:50:41;;;;;;;27.45;18.10;;;0.40;99.90;;;;;;4956829;28;20291;-83
2022/01/13 02:53:10;;;;;;;27.30;20.05;;;0.40;99.90;;;;;;5003461;28;20234;-83
2022/01/13 02:55:36;;;;;;;26.98;19.48;;;0.40;99.90;;;;;;5026058;28;20218;-83
2022/01/13 02:58:03;;;;;;;24.30;20.15;;;0.40;99.90;;;;;;5038007;28;20217;-83
2022/01/13 03:00:30;;;;;;;24.73;19.15;;;0.50;99.90;;;;;;5037140;28;20199;-83
2022/01/13 03:02:57;;;;;;;21.50;17.30;;;0.40;99.90;;;;;;5037904;28;20725;-83
2022/01/13 03:05:24;;;;;;;25.77;19.00;;;0.50;99.90;;;;;;5038142;28;20222;-83
2022/01/13 03:07:52;;;;;;;27.77;18.83;;;0.40;99.90;;;;;;5037799;28;20264;-84
2022/01/13 03:10:20;;;;;;;23.17;19.25;;;0.30;99.90;;;;;;5037486;28;20707;-84
2022/01/13 03:12:47;;;;;;;27.73;19.20;;;0.30;99.90;;;;;;5037987;28;20194;-83
2022/01/13 03:15:14;;;;;;;25.70;21.67;;;0.30;99.90;;;;;;5037291;28;20252;-84
2022/01/13 03:17:41;;;;;;;29.90;21.63;;;0.30;99.90;;;;;;5037694;28;20203;-84
2022/01/13 03:20:08;;;;;;;22.55;18.88;;;0.30;99.90;;;;;;5037296;28;20198;-83
2022/01/13 03:22:35;;;;;;;22.48;17.15;;;0.20;99.90;;;;;;5037962;28;20226;-83
2022/01/13 03:25:03;;;;;;;26.17;20.27;;;0.10;99.90;;;;;;5037173;28;20230;-83
2022/01/13 03:27:34;;;;;;;24.17;17.13;;;0.30;99.90;;;;;;5037849;28;20222;-83
2022/01/13 03:30:04;;;;;;;23.98;18.35;;;0.30;99.90;;;;;;5037560;28;20206;-83
2022/01/13 03:32:31;;;;;;;21.73;18.27;;;0.20;99.90;;;;;;5037236;28;20233;-84
2022/01/13 03:34:58;;;;;;;22.95;17.38;;;0.20;99.90;;;;;;5036936;28;20218;-83
2022/01/13 03:37:25;;;;;;;26.33;18.35;;;0.10;99.90;;;;;;5037587;28;20214;-83
2022/01/13 03:39:52;;;;;;;26.75;19.20;;;0.30;99.90;;;;;;5037125;28;20642;-83
2022/01/13 03:42:18;;;;;;;28.05;19.83;;;0.40;99.90;;;;;;5039857;28;20264;-83
2022/01/13 03:44:46;;;;;;;32.00;23.15;;;0.40;99.90;;;;;;5044251;28;20239;-83
2022/01/13 03:47:14;;;;;;;25.30;18.98;;;0.30;99.90;;;;;;5044022;28;20202;-83
2022/01/13 03:49:42;;;;;;;30.00;19.30;;;0.30;99.90;;;;;;5037431;28;20209;-83
2022/01/13 03:52:51;;;;;;;21.95;18.20;;;0.40;99.90;;;;;;5022583;28;20571;-83
2022/01/13 03:55:59;;;;;;;26.35;19.88;;;0.40;99.90;;;;;;5037555;28;20235;-83
2022/01/13 03:59:20;;;;;;;24.10;20.30;;;0.40;99.90;;;;;;5037693;28;20272;-83
2022/01/13 04:02:08;;;;;;;23.63;17.88;;;0.40;99.90;;;;;;5039037;28;20210;-83
2022/01/13 04:04:37;;;;;;;22.60;20.20;;;0.40;99.90;;;;;;5040780;28;20218;-83
2022/01/13 04:07:07;;;;;;;22.17;17.05;;;0.40;99.90;;;;;;5040834;28;20257;-83
2022/01/13 04:10:13;;;;;;;25.33;17.67;;;0.50;99.90;;;;;;5040782;28;20602;-83
2022/01/13 04:12:39;;;;;;;25.67;18.00;;;0.60;99.90;;;;;;5040503;28;20207;-83
2022/01/13 04:15:11;;;;;;;24.13;19.15;;;0.60;99.90;;;;;;5040645;28;20230;-83
2022/01/13 04:17:39;;;;;;;24.00;16.98;;;0.60;99.90;;;;;;5040620;28;20211;-84
2022/01/13 04:20:08;;;;;;;22.50;17.35;;;0.60;99.90;;;;;;5040369;28;20230;-83
2022/01/13 04:22:35;;;;;;;20.60;17.90;;;0.70;99.90;;;;;;5040846;28;20723;-84
2022/01/13 04:25:02;;;;;;;21.10;17.83;;;0.80;99.90;;;;;;5040556;28;20227;-83
2022/01/13 04:27:35;;;;;;;24.60;19.60;;;0.80;99.90;;;;;;5040236;28;20273;-84
2022/01/13 04:30:23;;;;;;;19.65;17.08;;;0.80;99.90;;;;;;5040410;28;20229;-84
2022/01/13 04:32:51;;;;;;;23.70;19.05;;;0.90;99.90;;;;;;5040180;28;20210;-84
2022/01/13 04:35:18;;;;;;;21.05;17.77;;;1.00;99.90;;;;;;5019962;28;20227;-84
2022/01/13 04:37:44;;;;;;;24.08;19.23;;;1.00;99.90;;;;;;5020372;28;20207;-83
2022/01/13 04:40:13;;;;;;;22.65;19.02;;;1.00;99.90;;;;;;5039167;28;20207;-83
2022/01/13 04:42:42;;;;;;;23.40;18.65;;;1.00;99.90;;;;;;5039874;28;20202;-83
2022/01/13 04:45:10;;;;;;;23.40;18.45;;;1.10;99.90;;;;;;5039054;28;20245;-83
2022/01/13 04:47:36;;;;;;;26.00;19.40;;;1.10;99.90;;;;;;5039396;28;20203;-83
2022/01/13 04:50:05;;;;;;;22.42;18.40;;;1.10;99.90;;;;;;5039909;28;20207;-84
2022/01/13 04:52:32;;;;;;;21.67;18.58;;;1.00;99.90;;;;;;5040989;28;20598;-82
2022/01/13 04:55:07;;;;;;;25.63;18.83;;;1.00;99.90;;;;;;5047505;28;20707;-84
2022/01/13 04:57:34;;;;;;;25.95;20.13;;;1.00;99.90;;;;;;5028785;28;20252;-83
2022/01/13 05:00:00;;;;;;;27.05;21.13;;;0.90;99.90;;;;;;5041169;28;20210;-84
2022/01/13 05:02:27;;;;;;;21.30;17.58;;;0.90;99.90;;;;;;5039850;28;20599;-84
2022/01/13 05:04:54;;;;;;;31.75;19.30;;;0.90;99.90;;;;;;5039686;28;20228;-84
2022/01/13 05:07:22;;;;;;;22.10;19.90;;;0.90;99.90;;;;;;5039748;28;20215;-84
2022/01/13 05:09:48;;;;;;;26.95;18.27;;;0.90;99.90;;;;;;5040383;28;20246;-83
2022/01/13 05:12:16;;;;;;;23.33;19.15;;;0.90;99.90;;;;;;5039494;28;20198;-83
2022/01/13 05:14:44;;;;;;;25.25;19.70;;;0.90;99.90;;;;;;5039880;28;20237;-84
2022/01/13 05:17:23;;;;;;;22.17;19.25;;;0.90;99.90;;;;;;5039980;28;20771;-83
2022/01/13 05:20:10;;;;;;;25.52;17.85;;;0.90;99.90;;;;;;5029133;28;20262;-84
2022/01/13 05:22:37;;;;;;;20.33;16.70;;;0.80;99.90;;;;;;5039805;28;20235;-83
2022/01/13 05:25:05;;;;;;;20.70;18.02;;;0.70;99.90;;;;;;5039175;28;20230;-83
2022/01/13 05:27:32;;;;;;;26.20;20.60;;;0.70;99.90;;;;;;5038981;28;20231;-84
2022/01/13 05:30:01;;;;;;;25.40;18.92;;;0.70;99.90;;;;;;5039265;28;20214;-83
2022/01/13 05:32:27;;;;;;;23.38;17.40;;;0.70;99.90;;;;;;5038680;28;20237;-84
2022/01/13 05:34:54;;;;;;;25.25;19.25;;;0.70;99.90;;;;;;5039303;28;20280;-84
2022/01/13 05:37:21;;;;;;;27.23;19.48;;;0.70;99.90;;;;;;5039015;28;20206;-84
2022/01/13 05:39:49;;;;;;;28.27;19.77;;;0.60;99.90;;;;;;5038882;28;20203;-83
2022/01/13 05:42:16;;;;;;;25.10;20.60;;;0.60;99.90;;;;;;5038644;28;20210;-83
2022/01/13 05:44:42;;;;;;;22.88;17.35;;;0.60;99.90;;;;;;5055444;28;20229;-84
2022/01/13 05:47:11;;;;;;;28.60;19.25;;;0.50;99.90;;;;;;5059007;28;20210;-83
2022/01/13 05:49:40;;;;;;;19.98;17.00;;;0.50;99.90;;;;;;5058795;28;20206;-83
2022/01/13 05:52:07;;;;;;;23.30;18.25;;;0.50;99.90;;;;;;5048358;28;20383;-84
2022/01/13 05:54:33;;;;;;;20.33;18.20;;;0.50;99.90;;;;;;5038558;28;20222;-84
2022/01/13 05:57:02;;;;;;;20.70;17.92;;;0.60;99.90;;;;;;5038064;28;20202;-83
2022/01/13 05:59:28;;;;;;;24.25;19.08;;;0.60;99.90;;;;;;5039096;28;20230;-84
2022/01/13 06:01:55;;;;;;;20.58;16.45;;;0.60;99.90;;;;;;5037870;28;20213;-83
2022/01/13 06:04:22;;;;;;;33.80;21.52;;;0.60;99.90;;;;;;5038326;28;20222;-83
2022/01/13 06:06:49;;;;;;;27.25;19.70;;;0.60;99.90;;;;;;5038855;28;20202;-84
2022/01/13 06:09:15;;;;;;;21.08;17.95;;;0.70;99.90;;;;;;5038859;28;20214;-84
2022/01/13 06:11:52;;;;;;;23.45;17.85;;;0.70;99.90;;;;;;5038097;28;20203;-84
2022/01/13 06:14:20;;;;;;;25.35;19.35;;;0.80;99.90;;;;;;5038580;28;20345;-84
2022/01/13 06:16:46;;;;;;;25.90;20.90;;;0.80;99.90;;;;;;5038527;28;20217;-83
2022/01/13 06:19:13;;;;;;;24.95;20.00;;;0.80;99.90;;;;;;5038124;28;20288;-84
2022/01/13 06:21:40;;;;;;;22.42;17.50;;;0.80;99.90;;;;;;5038639;28;20210;-83
2022/01/13 06:24:07;;;;;;;23.38;20.30;;;0.80;99.90;;;;;;5038927;28;20233;-83
2022/01/13 06:26:34;;;;;;;26.60;19.83;;;0.80;99.90;;;;;;5041972;28;20210;-83
2022/01/13 06:29:00;;;;;;;23.77;18.92;;;0.80;99.90;;;;;;5038983;28;20206;-83
2022/01/13 06:31:28;;;;;;;21.88;18.38;;;0.80;99.90;;;;;;5039131;28;20202;-84
2022/01/13 06:33:55;;;;;;;27.73;18.60;;;0.80;99.90;;;;;;5038350;28;20207;-84
2022/01/13 06:36:22;;;;;;;26.77;18.30;;;0.90;99.90;;;;;;5038633;28;20207;-84
2022/01/13 06:38:50;;;;;;;21.55;18.45;;;0.80;99.90;;;;;;5038825;28;20220;-83
2022/01/13 06:41:17;;;;;;;23.08;17.77;;;0.80;99.90;;;;;;5018752;28;20555;-83
2022/01/13 06:43:44;;;;;;;26.38;20.30;;;0.80;99.90;;;;;;5017986;28;20285;-83
2022/01/13 06:46:12;;;;;;;25.73;20.90;;;0.80;99.90;;;;;;5037615;28;20222;-84
2022/01/13 06:48:40;;;;;;;23.35;19.88;;;0.80;99.90;;;;;;5038222;28;20280;-84
2022/01/13 06:51:06;;;;;;;25.00;17.27;;;0.70;99.90;;;;;;5037706;28;20203;-83
2022/01/13 06:53:33;;;;;;;23.25;17.48;;;0.70;99.90;;;;;;5038120;28;20209;-83
2022/01/13 06:56:00;;;;;;;27.13;20.65;;;0.60;99.90;;;;;;5037849;28;20226;-84
2022/01/13 06:58:27;;;;;;;24.08;18.17;;;0.40;99.90;;;;;;5038336;28;20221;-83
2022/01/13 07:00:54;;;;;;;26.60;20.55;;;0.30;99.90;;;;;;5037508;28;20545;-83
2022/01/13 07:03:21;;;;;;;25.70;18.73;;;0.20;99.90;;;;;;5038127;28;20206;-83
2022/01/13 07:05:50;;;;;;;25.98;19.25;;;0.00;99.90;;;;;;5038517;28;20268;-83
2022/01/13 07:08:16;;;;;;;22.05;19.05;;;0.00;99.90;;;;;;5042179;28;20632;-85
2022/01/13 07:10:45;;;;;;;24.60;20.17;;;-0.10;99.90;;;;;;5041106;28;20260;-84
2022/01/13 07:13:12;;;;;;;25.55;20.15;;;-0.10;99.90;;;;;;5041213;28;20210;-85
2022/01/13 07:15:38;;;;;;;24.00;21.10;;;-0.10;99.90;;;;;;5039595;28;20229;-85
2022/01/13 07:18:05;;;;;;;25.02;21.27;;;-0.20;99.90;;;;;;5039959;28;20606;-83
2022/01/13 07:20:32;;;;;;;25.17;19.77;;;-0.10;99.90;;;;;;5039221;28;20260;-85
2022/01/13 07:23:00;;;;;;;23.40;18.35;;;0.00;99.90;;;;;;5039462;28;20217;-85
2022/01/13 07:25:27;;;;;;;22.35;19.38;;;0.00;99.90;;;;;;5039974;28;20248;-85
2022/01/13 07:27:55;;;;;;;24.73;18.55;;;-0.10;99.90;;;;;;5039722;28;20214;-84
2022/01/13 07:30:22;;;;;;;27.02;19.42;;;-0.10;99.90;;;;;;5039871;28;20268;-83
2022/01/13 07:32:48;;;;;;;20.30;16.73;;;0.00;99.90;;;;;;5039961;28;20198;-84
2022/01/13 07:35:15;;;;;;;24.33;17.92;;;-0.10;99.90;;;;;;5041186;28;20219;-84
2022/01/13 07:37:43;;;;;;;24.50;18.55;;;-0.10;99.90;;;;;;5044128;28;20206;-84
2022/01/13 07:40:15;;;;;;;23.90;19.13;;;-0.10;99.90;;;;;;5043834;28;20245;-84
2022/01/13 07:42:42;;;;;;;25.98;20.25;;;-0.10;99.90;;;;;;5043288;28;20206;-84
2022/01/13 07:45:10;;;;;;;25.08;19.20;;;-0.10;99.90;;;;;;5042285;28;20222;-84
2022/01/13 07:47:37;;;;;;;33.50;22.10;;;-0.10;99.90;;;;;;5038894;28;20206;-84
2022/01/13 07:50:05;;;;;;;23.75;18.98;;;-0.20;99.90;;;;;;5039674;28;20574;-80
2022/01/13 07:52:31;;;;;;;27.58;20.00;;;-0.20;99.90;;;;;;5036587;28;20207;-83
2022/01/13 07:54:58;;;;;;;25.67;20.55;;;-0.20;99.90;;;;;;5037940;28;20222;-84
2022/01/13 07:57:26;;;;;;;22.35;19.85;;;-0.20;99.90;;;;;;5039159;28;20613;-83
2022/01/13 07:59:53;;;;;;;30.98;20.25;;;-0.20;99.90;;;;;;5038568;28;20206;-82
2022/01/13 08:02:20;;;;;;;25.02;20.27;;;-0.20;99.90;;;;;;5047974;28;20253;-81
2022/01/13 08:04:48;;;;;;;27.58;18.75;;;-0.20;99.90;;;;;;5054130;28;20218;-82
2022/01/13 08:07:15;;;;;;;25.60;18.83;;;-0.30;99.90;;;;;;5046498;28;20203;-82
2022/01/13 08:09:41;;;;;;;32.63;20.70;;;-0.30;99.90;;;;;;5047946;28;20203;-82
2022/01/13 08:12:09;;;;;;;27.85;21.17;;;-0.30;99.90;;;;;;5052158;28;20202;-80
2022/01/13 08:14:37;;;;;;;26.40;19.75;;;-0.40;99.90;;;;;;5046463;28;20222;-82
2022/01/13 08:17:06;;;;;;;25.58;17.67;;;-0.40;99.90;;;;;;5038621;28;20206;-81
2022/01/13 08:19:48;;;;;;;32.75;21.08;;;-0.40;99.90;;;;;;5049364;28;20198;-81
2022/01/13 08:22:16;;;;;;;29.52;20.50;;;-0.30;99.90;;;;;;5042578;28;20186;-80
2022/01/13 08:24:43;;;;;;;28.30;21.80;;;-0.30;99.90;;;;;;5045989;28;20226;-81
2022/01/13 08:27:09;;;;;;;22.27;19.48;;;-0.40;99.90;;;;;;5043992;28;20214;-80
2022/01/13 08:29:38;;;;;;;29.95;20.60;;;-0.30;99.90;;;;;;5040004;28;20587;-81
2022/01/13 08:32:05;;;;;;;27.88;19.83;;;-0.30;99.90;;;;;;5039013;28;20258;-82
2022/01/13 08:34:32;;;;;;;26.90;20.33;;;-0.20;99.90;;;;;;5039371;28;20222;-81
2022/01/13 08:36:58;;;;;;;29.42;21.50;;;-0.10;99.90;;;;;;5040581;28;20206;-81
2022/01/13 08:39:25;;;;;;;27.85;19.85;;;-0.10;99.90;;;;;;5040262;28;20207;-83
2022/01/13 08:41:52;;;;;;;26.88;18.63;;;-0.10;99.90;;;;;;5039936;28;20203;-81
2022/01/13 08:44:19;;;;;;;27.15;20.83;;;0.00;99.90;;;;;;5040219;28;20234;-82
2022/01/13 08:46:47;;;;;;;23.17;19.85;;;0.10;99.90;;;;;;5039568;28;20199;-82
2022/01/13 08:49:14;;;;;;;23.73;19.02;;;0.20;99.90;;;;;;5041122;28;20224;-81
2022/01/13 08:51:41;;;;;;;25.92;20.13;;;0.20;99.90;;;;;;5023855;28;20282;-81
2022/01/13 08:54:08;;;;;;;27.83;20.77;;;0.30;99.90;;;;;;5022446;28;20289;-82
2022/01/13 08:56:35;;;;;;;21.75;19.48;;;0.30;99.90;;;;;;5020056;28;20236;-82
2022/01/13 08:59:01;;;;;;;27.83;19.27;;;0.30;99.90;;;;;;5019984;28;20218;-82
2022/01/13 09:01:29;;;;;;;25.20;18.27;;;0.30;99.90;;;;;;5035902;28;20539;-83
2022/01/13 09:03:59;;;;;;;24.40;17.85;;;0.30;99.90;;;;;;5040468;28;20207;-82
2022/01/13 09:06:26;;;;;;;25.98;18.77;;;0.40;99.90;;;;;;5038406;28;20579;-82
2022/01/13 09:08:53;;;;;;;23.17;20.58;;;0.40;99.90;;;;;;5036026;28;20260;-83
2022/01/13 09:11:19;;;;;;;27.85;19.77;;;0.50;99.90;;;;;;5038075;28;20198;-82
2022/01/13 09:13:46;;;;;;;23.10;18.83;;;0.50;99.90;;;;;;5037835;28;20711;-82
2022/01/13 09:16:17;;;;;;;27.20;20.05;;;0.60;99.90;;;;;;5035448;28;20264;-82
2022/01/13 09:19:07;;;;;;;24.70;19.40;;;0.60;99.90;;;;;;5037838;28;20681;-82
2022/01/13 09:21:38;;;;;;;28.92;19.55;;;0.70;99.90;;;;;;5044628;28;20198;-82
2022/01/13 09:24:05;;;;;;;26.33;20.15;;;0.70;99.90;;;;;;5041434;28;20219;-83
2022/01/13 09:26:32;;;;;;;25.17;20.02;;;0.80;99.90;;;;;;5037492;28;20210;-81
2022/01/13 09:28:59;;;;;;;27.40;21.27;;;0.90;99.90;;;;;;5039286;28;20210;-83
2022/01/13 09:31:26;;;;;;;24.98;20.75;;;0.90;99.90;;;;;;5039808;28;20264;-82
2022/01/13 09:33:54;;;;;;;22.52;19.55;;;1.00;99.90;;;;;;5039712;28;20207;-82
2022/01/13 09:36:21;;;;;;;25.92;19.92;;;0.90;99.90;;;;;;5040185;28;20198;-82
2022/01/13 09:38:49;;;;;;;28.17;20.58;;;1.00;99.90;;;;;;5039160;28;20211;-83
2022/01/13 09:41:16;;;;;;;25.90;16.83;;;1.10;99.90;;;;;;5038394;28;20207;-83
2022/01/13 09:43:45;;;;;;;26.85;17.52;;;1.10;99.90;;;;;;5038906;28;20214;-82
2022/01/13 09:46:12;;;;;;;22.35;18.73;;;1.20;99.90;;;;;;5038597;28;20277;-82
2022/01/13 09:48:40;;;;;;;24.92;17.40;;;1.30;99.90;;;;;;5039103;28;20253;-81
2022/01/13 09:51:07;;;;;;;16.80;14.10;;;1.30;99.90;;;;;;5038615;28;20258;-83
2022/01/13 09:53:34;;;;;;;17.40;14.15;;;1.40;99.90;;;;;;5038890;28;20239;-82
2022/01/13 09:56:03;;;;;;;15.70;12.43;;;1.40;99.90;;;;;;5038833;28;20234;-82
2022/01/13 09:58:30;;;;;;;19.63;13.38;;;1.40;99.90;;;;;;5037812;28;20210;-82
2022/01/13 10:00:58;;;;;;;20.13;14.05;;;1.40;99.90;;;;;;5038387;28;20207;-82
2022/01/13 10:03:26;;;;;;;19.33;16.55;;;1.40;99.90;;;;;;5038044;28;20213;-82
2022/01/13 10:05:56;;;;;;;19.67;16.08;;;1.50;99.90;;;;;;5037686;28;20231;-82
2022/01/13 10:08:24;;;;;;;23.83;17.50;;;1.60;99.90;;;;;;5038570;28;20208;-82
2022/01/13 10:10:51;;;;;;;19.33;17.33;;;1.70;99.90;;;;;;5038576;28;20637;-82
2022/01/13 10:13:39;;;;;;;23.33;16.30;;;1.80;99.90;;;;;;5039612;28;20213;-83
2022/01/13 10:16:23;;;;;;;24.27;17.42;;;1.90;99.90;;;;;;5039232;28;20242;-82
2022/01/13 10:18:51;;;;;;;19.70;16.45;;;2.00;99.90;;;;;;5037898;28;20573;-82
2022/01/13 10:21:20;;;;;;;22.65;15.32;;;2.20;99.90;;;;;;5037907;28;20213;-82
2022/01/13 10:24:02;;;;;;;25.02;16.40;;;2.40;99.90;;;;;;5040366;28;20217;-82
2022/01/13 10:26:29;;;;;;;26.08;15.73;;;2.60;99.90;;;;;;5041261;28;20256;-82
2022/01/13 10:28:57;;;;;;;21.58;15.43;;;2.70;99.90;;;;;;5039382;28;20214;-83
2022/01/13 10:31:44;;;;;;;19.02;15.70;;;2.90;99.90;;;;;;5037751;28;20254;-83
2022/01/13 10:34:19;;;;;;;20.48;16.17;;;3.00;99.90;;;;;;5038247;28;20237;-83
2022/01/13 10:37:04;;;;;;;17.98;14.95;;;3.10;99.90;;;;;;5038068;28;20627;-82
2022/01/13 10:40:07;;;;;;;18.42;15.05;;;3.30;99.90;;;;;;5038411;28;20679;-83
2022/01/13 10:45:38;;;;;;;20.55;16.30;;;3.70;99.90;;;;;;5037811;28;20237;-81
2022/01/13 10:48:08;;;;;;;16.10;14.45;;;3.80;99.90;;;;;;5037596;28;20217;-83
2022/01/13 10:50:38;;;;;;;21.27;16.63;;;3.90;99.90;;;;;;5037118;28;20233;-82
2022/01/13 10:53:07;;;;;;;20.00;14.98;;;4.10;99.90;;;;;;5037811;28;20644;-80
2022/01/13 10:55:45;;;;;;;20.75;16.80;;;4.10;99.90;;;;;;5037266;28;20233;-80
2022/01/13 10:58:14;;;;;;;24.88;14.35;;;4.40;99.90;;;;;;5037620;28;20692;-81
2022/01/13 11:00:43;;;;;;;16.65;14.90;;;4.90;99.90;;;;;;5037644;28;20206;-82
2022/01/13 11:03:12;;;;;;;18.20;15.07;;;5.70;99.90;;;;;;5037800;28;20212;-80
2022/01/13 11:05:41;;;;;;;18.77;14.00;;;6.50;99.80;;;;;;5037626;28;20654;-81
2022/01/13 11:08:10;;;;;;;16.17;14.02;;;7.30;97.80;;;;;;5038261;28;20268;-81
2022/01/13 11:10:39;;;;;;;17.33;15.55;;;8.10;96.00;;;;;;5040262;28;20302;-79
2022/01/13 11:13:08;;;;;;;17.70;15.95;;;8.90;94.10;;;;;;5042637;28;20214;-80
2022/01/13 11:15:39;;;;;;;17.35;15.13;;;9.40;92.30;;;;;;5042904;28;20326;-81
2022/01/13 11:18:07;;;;;;;15.37;13.43;;;10.00;91.00;;;;;;5050253;28;20232;-82
2022/01/13 11:20:34;;;;;;;17.33;14.47;;;10.70;89.40;;;;;;5045517;28;20480;-82
2022/01/13 11:23:00;;;;;;;14.60;13.20;;;11.30;85.10;;;;;;5041655;28;20452;-81
2022/01/13 11:25:27;;;;;;;15.83;14.33;;;12.00;81.60;;;;;;5042248;28;20905;-81
2022/01/13 11:27:57;;;;;;;15.80;14.10;;;12.60;78.20;;;;;;5041676;28;20479;-81
2022/01/13 11:30:27;;;;;;;16.00;14.40;;;12.90;74.60;;;;;;5042767;28;20833;-81
2022/01/13 11:32:53;;;;;;;16.40;14.20;;;13.00;73.30;;;;;;5045141;28;20445;-80
2022/01/13 11:35:25;;;;;;;14.07;12.67;;;13.50;72.70;;;;;;5045650;28;20462;-82
2022/01/13 11:37:52;;;;;;;14.03;12.70;;;14.10;70.40;;;;;;5044676;28;20449;-81
2022/01/13 11:40:35;;;;;;;14.23;12.80;;;14.70;67.50;;;;;;5043223;28;20506;-79
2022/01/13 11:43:04;;;;;;;18.40;16.70;;;15.30;66.40;;;;;;5043764;28;20464;-79
2022/01/13 11:45:36;;;;;;;17.53;15.83;;;15.90;64.80;;;;;;5043577;28;20524;-80
2022/01/13 11:48:15;;;;;;;17.10;15.60;;;16.60;61.50;;;;;;5041954;28;20494;-81
2022/01/13 11:50:47;;;;;;;17.47;15.73;;;16.90;58.70;;;;;;5040606;28;20450;-82
2022/01/13 11:53:25;;;;;;;18.30;16.13;;;17.00;57.80;;;;;;5041535;28;20804;-81
2022/01/13 11:55:54;;;;;;;15.97;14.37;;;17.40;58.00;;;;;;5040133;28;20498;-81
2022/01/13 11:58:25;;;;;;;15.17;13.97;;;17.80;57.50;;;;;;5041302;28;20454;-81
2022/01/13 12:00:54;;;;;;;15.20;13.80;;;18.20;57.60;;;;;;5039554;28;20451;-80
2022/01/13 12:03:31;;;;;;;15.97;14.47;;;17.50;54.10;;;;;;5040052;28;20456;-80
2022/01/13 12:06:00;;;;;;;16.53;14.97;;;17.20;55.60;;;;;;5039158;28;20688;-80
2022/01/13 12:08:45;;;;;;;15.97;14.33;;;17.00;56.10;;;;;;5039537;28;20453;-80
2022/01/13 12:11:40;;;;;;;16.03;14.40;;;16.10;55.70;;;;;;5038904;28;20747;-80
2022/01/13 12:14:37;;;;;;;14.83;13.53;;;15.60;56.40;;;;;;5038920;28;20506;-80
2022/01/13 12:17:09;;;;;;;13.97;12.30;;;15.00;57.60;;;;;;5038348;28;20453;-80
2022/01/13 12:19:39;;;;;;;15.03;13.43;;;15.10;58.10;;;;;;5038319;28;20456;-80
2022/01/13 12:22:11;;;;;;;13.27;11.97;;;15.30;57.50;;;;;;5037201;28;20460;-80
2022/01/13 12:24:49;;;;;;;12.93;11.60;;;15.60;57.20;;;;;;5038078;28;20973;-81
2022/01/13 12:27:17;;;;;;;14.20;12.97;;;16.00;56.80;;;;;;5038794;28;20484;-80
2022/01/13 12:29:46;;;;;;;13.43;12.10;;;16.70;55.20;;;;;;5039106;28;20458;-81
2022/01/13 12:32:14;;;;;;;15.13;12.13;;;17.10;54.10;;;;;;5039069;28;20455;-80
2022/01/13 12:34:47;;;;;;;15.10;13.70;;;17.40;54.00;;;;;;5038080;28;20482;-80
2022/01/13 12:37:27;;;;;;;16.90;15.13;;;17.70;52.80;;;;;;5037955;28;20456;-81
2022/01/13 12:39:59;;;;;;;13.40;12.27;;;17.90;52.40;;;;;;5038417;28;20438;-81
2022/01/13 12:42:29;;;;;;;15.80;13.83;;;18.20;52.50;;;;;;5037234;28;20451;-81
2022/01/13 12:47:42;;;;;;;15.37;13.90;;;18.40;50.80;;;;;;5038129;28;20455;-81
2022/01/13 12:50:21;;;;;;;16.10;14.67;;;18.30;50.90;;;;;;5037471;28;20454;-79
2022/01/13 12:52:50;;;;;;;14.67;13.17;;;17.50;51.10;;;;;;5036069;28;20452;-80
2022/01/13 12:55:18;;;;;;;13.67;12.33;;;17.30;52.60;;;;;;5037460;28;20477;-80
2022/01/13 12:57:51;;;;;;;13.93;12.60;;;17.50;52.10;;;;;;5038572;28;20450;-81
2022/01/13 13:00:20;;;;;;;14.40;12.83;;;17.60;51.30;;;;;;5037863;28;20453;-80